Terminal Aerodrome Forecast
Issued by NWS Goodland, KS

Home | Current Version | Previous Version | Text Only | Print | Product List | Glossary On
Versions: 1 2 3 4 5 6 7 8 9 10 11 12 13
688
FTUS43 KGLD 091746
TAFGLD
TAF
KGLD 091746Z 0918/1018 34019G30KT P6SM SKC
     FM092200 33013KT P6SM SKC
     FM092300 33009KT P6SM SKC=

USA.gov is the U.S. government's official web portal to all federal, state and local government web resources and services.